Time;durP1;ratioP1;P1;durP2;ratioP2;P2;SDS_P1;SDS_P2;PMS_P1;PMS_P2;Temp;Humidity;BMP_temperature;BMP_pressure;BME280_temperature;BME280_humidity;BME280_pressure;Samples;Min_cycle;Max_cycle;Signal;HPM_P1;HPM_P2
2024/04/02 00:03:44;;;;;;;;;;;8.80;99.90;;;;;;8398280;28;19986;-69
2024/04/02 00:07:45;;;;;;;;;;;8.70;99.90;;;;;;8403956;28;20057;-69
2024/04/02 00:11:46;;;;;;;;;;;8.70;99.90;;;;;;8416087;28;19963;-69
2024/04/02 00:15:48;;;;;;;;;;;8.60;99.90;;;;;;8392002;28;19966;-69
2024/04/02 00:34:53;;;;;;;;;;;8.50;99.90;;;;;;8416768;28;19974;-69
2024/04/02 00:39:19;;;;;;;;;;;8.50;99.90;;;;;;8411965;28;19924;-68
2024/04/02 00:43:20;;;;;;;;;;;8.40;99.90;;;;;;8391668;28;19930;-69
2024/04/02 00:52:24;;;;;;;;;;;8.30;99.90;;;;;;8415988;28;20019;-68
2024/04/02 00:56:25;;;;;;;;;;;8.30;99.90;;;;;;8385426;28;19919;-69
2024/04/02 01:00:25;;;;;;;;;;;8.20;99.90;;;;;;8403250;28;19974;-68
2024/04/02 01:04:26;;;;;;;;;;;8.20;99.90;;;;;;8401138;28;19920;-68
2024/04/02 01:08:27;;;;;;;;;;;8.10;99.90;;;;;;8383853;28;19980;-68
2024/04/02 01:12:28;;;;;;;;;;;8.10;99.90;;;;;;8399709;28;20382;-68
2024/04/02 01:16:29;;;;;;;;;;;8.10;99.90;;;;;;8405916;28;20430;-68
2024/04/02 01:20:30;;;;;;;;;;;8.00;99.90;;;;;;8390799;28;20325;-68
2024/04/02 01:29:34;;;;;;;;;;;7.90;99.90;;;;;;8421723;28;19919;-69
2024/04/02 01:33:35;;;;;;;;;;;7.80;99.90;;;;;;8402391;28;19920;-69
2024/04/02 01:42:39;;;;;;;;;;;7.80;99.90;;;;;;8409240;28;20020;-69
2024/04/02 01:47:01;;;;;;;;;;;7.70;99.90;;;;;;8400083;28;20014;-69
2024/04/02 01:51:02;;;;;;;;;;;7.70;99.90;;;;;;8404045;28;20021;-68
2024/04/02 01:55:03;;;;;;;;;;;7.70;99.90;;;;;;8402257;28;19927;-68
2024/04/02 01:59:04;;;;;;;;;;;7.60;99.90;;;;;;8386374;28;19920;-69
2024/04/02 02:03:05;;;;;;;;;;;7.60;99.90;;;;;;8401594;28;19963;-68
2024/04/02 02:07:06;;;;;;;;;;;7.60;99.90;;;;;;8405380;28;19920;-69
2024/04/02 02:11:07;;;;;;;;;;;7.60;99.90;;;;;;8389464;28;19931;-69
2024/04/02 02:15:07;;;;;;;;;;;7.60;99.90;;;;;;8404395;28;19962;-69
2024/04/02 02:19:08;;;;;;;;;;;7.50;99.90;;;;;;8402858;28;19973;-69
2024/04/02 02:23:09;;;;;;;;;;;7.50;99.90;;;;;;8402023;28;19943;-69
2024/04/02 02:27:10;;;;;;;;;;;7.50;99.90;;;;;;8388611;28;19951;-69
2024/04/02 02:31:10;;;;;;;;;;;7.50;99.90;;;;;;8412039;28;20001;-68
2024/04/02 02:35:11;;;;;;;;;;;7.50;99.90;;;;;;8391463;28;19967;-68
2024/04/02 02:39:12;;;;;;;;;;;7.50;99.90;;;;;;8405710;28;20010;-68
2024/04/02 02:43:13;;;;;;;;;;;7.40;99.90;;;;;;8400438;28;19919;-68
2024/04/02 02:47:15;;;;;;;;;;;7.40;99.90;;;;;;8407497;28;20140;-68
2024/04/02 02:51:16;;;;;;;;;;;7.40;99.90;;;;;;8410174;28;20406;-68
2024/04/02 02:55:17;;;;;;;;;;;7.40;99.90;;;;;;8403051;28;20017;-68
2024/04/02 02:59:17;;;;;;;;;;;7.40;99.90;;;;;;8381719;28;19930;-69
2024/04/02 03:03:18;;;;;;;;;;;7.40;99.90;;;;;;8405890;28;19971;-68
2024/04/02 03:07:19;;;;;;;;;;;7.40;99.90;;;;;;8401928;28;20007;-68
2024/04/02 03:11:20;;;;;;;;;;;7.40;99.90;;;;;;8407314;28;20077;-69
2024/04/02 03:15:21;;;;;;;;;;;7.40;99.90;;;;;;8406835;28;19920;-68
2024/04/02 03:19:22;;;;;;;;;;;7.30;99.90;;;;;;8407385;28;20011;-69
2024/04/02 03:23:23;;;;;;;;;;;7.30;99.90;;;;;;8404679;28;19926;-68
2024/04/02 03:27:23;;;;;;;;;;;7.30;99.90;;;;;;8397784;28;19931;-69
2024/04/02 03:31:24;;;;;;;;;;;7.30;99.90;;;;;;8406279;28;20352;-68
2024/04/02 03:35:25;;;;;;;;;;;7.30;99.90;;;;;;8392403;28;19920;-69
2024/04/02 03:39:26;;;;;;;;;;;7.30;99.90;;;;;;8386521;28;19927;-69
2024/04/02 03:43:27;;;;;;;;;;;7.30;99.90;;;;;;8383664;28;19977;-68
2024/04/02 03:47:27;;;;;;;;;;;7.30;99.90;;;;;;8403704;28;19924;-69
2024/04/02 03:51:28;;;;;;;;;;;7.30;99.90;;;;;;8404074;28;19923;-68
2024/04/02 03:55:33;;;;;;;;;;;7.30;99.90;;;;;;8387691;28;19938;-69
2024/04/02 03:59:35;;;;;;;;;;;7.30;99.90;;;;;;8406735;28;20010;-69
2024/04/02 04:03:36;;;;;;;;;;;7.30;99.90;;;;;;8388749;28;20367;-68
2024/04/02 04:07:37;;;;;;;;;;;7.30;99.90;;;;;;8386890;28;20329;-68
2024/04/02 04:11:38;;;;;;;;;;;7.30;99.90;;;;;;8391623;28;19920;-69
2024/04/02 04:15:38;;;;;;;;;;;7.30;99.90;;;;;;8397163;28;20095;-69
2024/04/02 04:19:39;;;;;;;;;;;7.30;99.90;;;;;;8402241;28;19931;-69
2024/04/02 04:23:40;;;;;;;;;;;7.30;99.90;;;;;;8405843;28;20291;-68
2024/04/02 04:27:44;;;;;;;;;;;7.30;99.90;;;;;;8400602;28;19928;-69
2024/04/02 04:31:47;;;;;;;;;;;7.30;99.90;;;;;;8401781;28;20006;-68
2024/04/02 04:35:48;;;;;;;;;;;7.30;99.90;;;;;;8386889;28;19926;-68
2024/04/02 04:39:49;;;;;;;;;;;7.30;99.90;;;;;;8399033;28;20351;-68
2024/04/02 04:43:50;;;;;;;;;;;7.30;99.90;;;;;;8391842;28;19963;-68
2024/04/02 04:47:51;;;;;;;;;;;7.30;99.90;;;;;;8394786;28;20264;-68
2024/04/02 04:51:52;;;;;;;;;;;7.40;99.90;;;;;;8399494;28;19927;-68
2024/04/02 04:56:03;;;;;;;;;;;7.40;99.90;;;;;;8407985;28;20026;-68
2024/04/02 05:00:04;;;;;;;;;;;7.40;99.90;;;;;;8393450;28;20007;-68
2024/04/02 05:04:06;;;;;;;;;;;7.50;99.90;;;;;;8407438;28;20002;-68
2024/04/02 05:08:23;;;;;;;;;;;7.50;99.90;;;;;;8413947;28;19998;-68
2024/04/02 05:12:24;;;;;;;;;;;7.50;99.90;;;;;;8404646;28;20393;-68
2024/04/02 05:16:27;;;;;;;;;;;7.60;99.90;;;;;;8391501;28;19943;-68
2024/04/02 05:20:28;;;;;;;;;;;7.50;99.90;;;;;;8426640;28;20003;-68
2024/04/02 05:24:29;;;;;;;;;;;7.50;99.90;;;;;;8404177;28;19926;-69
2024/04/02 05:28:30;;;;;;;;;;;7.60;99.90;;;;;;8419300;28;19959;-68
2024/04/02 05:32:31;;;;;;;;;;;7.50;99.90;;;;;;8410265;28;19931;-69
2024/04/02 05:36:32;;;;;;;;;;;7.50;99.90;;;;;;8410273;28;19920;-69
2024/04/02 05:40:33;;;;;;;;;;;7.60;99.90;;;;;;8412653;28;19921;-69
2024/04/02 05:44:34;;;;;;;;;;;7.60;99.90;;;;;;8402748;28;19920;-68
2024/04/02 05:48:35;;;;;;;;;;;7.60;99.90;;;;;;8401210;28;20048;-68
2024/04/02 05:52:36;;;;;;;;;;;7.70;99.90;;;;;;8415464;28;20041;-69
2024/04/02 05:56:36;;;;;;;;;;;7.70;99.90;;;;;;8410054;28;20314;-69
2024/04/02 06:00:37;;;;;;;;;;;7.80;99.90;;;;;;8399077;28;19920;-68
2024/04/02 06:04:38;;;;;;;;;;;7.90;99.90;;;;;;8412072;28;19999;-69
2024/04/02 06:08:39;;;;;;;;;;;8.00;99.90;;;;;;8404549;28;19927;-69
2024/04/02 06:12:43;;;;;;;;;;;8.10;99.90;;;;;;8393900;28;19981;-69
2024/04/02 06:16:44;;;;;;;;;;;8.10;99.90;;;;;;8395997;28;20061;-68
2024/04/02 06:20:45;;;;;;;;;;;8.10;99.90;;;;;;8399471;28;19920;-68
2024/04/02 06:24:46;;;;;;;;;;;8.10;99.90;;;;;;8396377;28;19920;-69
2024/04/02 06:28:46;;;;;;;;;;;8.10;99.90;;;;;;8411521;28;20476;-68
2024/04/02 06:32:47;;;;;;;;;;;8.10;99.90;;;;;;8411999;28;20017;-69
2024/04/02 06:36:48;;;;;;;;;;;8.20;99.90;;;;;;8411498;28;19975;-69
2024/04/02 06:40:49;;;;;;;;;;;8.20;99.90;;;;;;8406084;28;19920;-69
2024/04/02 06:44:50;;;;;;;;;;;8.40;99.90;;;;;;8394420;28;20566;-69
2024/04/02 06:48:50;;;;;;;;;;;8.40;99.90;;;;;;8408743;28;20030;-68
2024/04/02 06:52:52;;;;;;;;;;;8.50;99.90;;;;;;8395470;28;19928;-68
2024/04/02 06:56:53;;;;;;;;;;;8.60;99.90;;;;;;8396474;28;20014;-69
2024/04/02 07:00:54;;;;;;;;;;;8.70;99.90;;;;;;8401029;28;19928;-68
2024/04/02 07:04:55;;;;;;;;;;;8.70;99.90;;;;;;8389011;28;19928;-68
2024/04/02 07:08:58;;;;;;;;;;;8.80;99.90;;;;;;8396181;28;19920;-69
2024/04/02 07:12:58;;;;;;;;;;;8.90;99.90;;;;;;8380216;28;19999;-68
2024/04/02 07:16:59;;;;;;;;;;;8.90;99.90;;;;;;8390007;28;19920;-69
2024/04/02 07:21:07;;;;;;;;;;;9.00;99.90;;;;;;8388736;28;19978;-68
2024/04/02 07:25:07;;;;;;;;;;;9.00;99.90;;;;;;8404883;28;20347;-68
2024/04/02 07:29:09;;;;;;;;;;;9.10;99.90;;;;;;8412765;28;19924;-68
2024/04/02 07:33:09;;;;;;;;;;;9.20;99.90;;;;;;8401309;28;20334;-68
2024/04/02 07:37:10;;;;;;;;;;;9.20;99.90;;;;;;8385166;28;19946;-68
2024/04/02 07:41:11;;;;;;;;;;;9.30;99.90;;;;;;8386518;28;19936;-69
2024/04/02 07:45:15;;;;;;;;;;;9.30;99.90;;;;;;8384489;28;19926;-69
2024/04/02 07:49:15;;;;;;;;;;;9.40;99.90;;;;;;8384548;28;20427;-69
2024/04/02 07:53:16;;;;;;;;;;;9.40;99.90;;;;;;8391937;28;20241;-68
2024/04/02 07:57:17;;;;;;;;;;;9.50;99.90;;;;;;8410228;28;20007;-69
2024/04/02 08:01:18;;;;;;;;;;;9.50;99.90;;;;;;8394096;28;20052;-68
2024/04/02 08:05:19;;;;;;;;;;;9.50;99.90;;;;;;8408170;28;19970;-69
2024/04/02 08:09:20;;;;;;;;;;;9.50;99.90;;;;;;8410788;28;19927;-69
2024/04/02 08:13:21;;;;;;;;;;;9.60;99.90;;;;;;8406984;28;20518;-69
2024/04/02 08:17:22;;;;;;;;;;;9.60;99.90;;;;;;8409965;28;20003;-69
2024/04/02 08:21:22;;;;;;;;;;;9.60;99.90;;;;;;8394035;28;19920;-68
2024/04/02 08:25:23;;;;;;;;;;;9.70;99.90;;;;;;8391258;28;19920;-69
2024/04/02 08:29:24;;;;;;;;;;;9.80;99.90;;;;;;8410850;28;19960;-68
2024/04/02 08:33:25;;;;;;;;;;;9.80;99.90;;;;;;8408351;28;19924;-68
2024/04/02 08:37:26;;;;;;;;;;;9.90;99.90;;;;;;8409508;28;19970;-69
2024/04/02 08:41:27;;;;;;;;;;;10.00;99.90;;;;;;8380817;28;19920;-69
2024/04/02 08:45:28;;;;;;;;;;;10.20;99.90;;;;;;8388221;28;20446;-69
2024/04/02 08:49:29;;;;;;;;;;;10.20;99.90;;;;;;8390229;28;20317;-69
2024/04/02 08:53:34;;;;;;;;;;;10.40;99.90;;;;;;8409773;28;20002;-68
2024/04/02 08:57:35;;;;;;;;;;;10.60;99.90;;;;;;8398743;28;20006;-69
2024/04/02 09:01:36;;;;;;;;;;;10.60;99.90;;;;;;8409294;28;20014;-68
2024/04/02 09:05:37;;;;;;;;;;;10.70;99.90;;;;;;8388754;28;20003;-69
2024/04/02 09:09:40;;;;;;;;;;;10.80;99.90;;;;;;8408527;28;19927;-69
2024/04/02 09:13:41;;;;;;;;;;;10.90;99.90;;;;;;8409226;28;20134;-69
2024/04/02 09:17:42;;;;;;;;;;;11.00;99.90;;;;;;8390695;28;19966;-68
2024/04/02 09:21:42;;;;;;;;;;;11.10;99.90;;;;;;8409259;28;20004;-69
2024/04/02 09:25:44;;;;;;;;;;;11.30;99.90;;;;;;8407267;28;19967;-69
2024/04/02 09:29:44;;;;;;;;;;;11.40;99.90;;;;;;8408445;28;20010;-69
2024/04/02 09:33:47;;;;;;;;;;;11.30;99.90;;;;;;8408508;28;19923;-69
2024/04/02 09:37:49;;;;;;;;;;;11.30;99.90;;;;;;8389990;28;20015;-68
2024/04/02 09:41:51;;;;;;;;;;;11.30;99.90;;;;;;8393601;28;19920;-69
2024/04/02 09:45:52;;;;;;;;;;;11.50;99.90;;;;;;8403804;28;19999;-68
2024/04/02 09:49:53;;;;;;;;;;;11.60;99.90;;;;;;8408114;28;20000;-68
2024/04/02 09:53:54;;;;;;;;;;;11.70;99.90;;;;;;8408370;28;19920;-68
2024/04/02 09:57:56;;;;;;;;;;;11.70;99.90;;;;;;8405557;28;20408;-69
2024/04/02 10:01:58;;;;;;;;;;;11.50;99.90;;;;;;8406777;28;19948;-68
2024/04/02 10:06:02;;;;;;;;;;;11.40;99.90;;;;;;8407683;28;20006;-69
2024/04/02 10:10:06;;;;;;;;;;;11.30;99.90;;;;;;8411387;28;20264;-69
2024/04/02 10:14:07;;;;;;;;;;;11.10;99.90;;;;;;8405975;28;19926;-69
2024/04/02 10:18:09;;;;;;;;;;;10.90;99.90;;;;;;8400067;28;19930;-69
2024/04/02 10:22:09;;;;;;;;;;;10.70;99.90;;;;;;8411321;28;20013;-68
2024/04/02 10:26:10;;;;;;;;;;;10.60;99.90;;;;;;8412091;28;19931;-68
2024/04/02 10:30:15;;;;;;;;;;;10.50;99.90;;;;;;8413058;28;19924;-69
2024/04/02 10:34:16;;;;;;;;;;;10.40;99.90;;;;;;8412015;28;20003;-69
2024/04/02 10:38:17;;;;;;;;;;;10.40;99.90;;;;;;8412121;28;20004;-69
2024/04/02 10:42:18;;;;;;;;;;;10.40;99.90;;;;;;8398334;28;19920;-69
2024/04/02 10:46:19;;;;;;;;;;;10.30;99.90;;;;;;8411481;28;20006;-69
2024/04/02 10:50:21;;;;;;;;;;;10.30;99.90;;;;;;8411256;28;20382;-69
2024/04/02 10:54:22;;;;;;;;;;;10.30;99.90;;;;;;8407977;28;20438;-69
2024/04/02 10:58:22;;;;;;;;;;;10.30;99.90;;;;;;8412114;28;20279;-69
2024/04/02 11:02:23;;;;;;;;;;;10.40;99.90;;;;;;8411364;28;19920;-69
2024/04/02 11:06:24;;;;;;;;;;;10.60;99.90;;;;;;8409254;28;19962;-68
2024/04/02 11:10:25;;;;;;;;;;;10.70;99.90;;;;;;8412645;28;20377;-69
2024/04/02 11:14:27;;;;;;;;;;;10.90;99.90;;;;;;8409013;28;20365;-69
2024/04/02 11:18:28;;;;;;;;;;;11.30;99.90;;;;;;8411830;28;19999;-69
2024/04/02 11:26:53;;;;;;;;;;;11.40;99.90;;;;;;8407275;28;20453;-69
2024/04/02 11:30:54;;;;;;;;;;;11.50;99.90;;;;;;8393235;28;20288;-69
2024/04/02 11:35:09;;;;;;;;;;;11.70;99.90;;;;;;8393287;28;20367;-69
2024/04/02 11:39:10;;;;;;;;;;;11.70;99.90;;;;;;8409997;28;20011;-69
2024/04/02 11:43:11;;;;;;;;;;;11.60;99.90;;;;;;8398050;28;19927;-68
2024/04/02 11:47:14;;;;;;;;;;;11.50;99.90;;;;;;8409062;28;20026;-69
2024/04/02 11:51:15;;;;;;;;;;;11.60;99.90;;;;;;8410767;28;20319;-68
2024/04/02 11:55:16;;;;;;;;;;;11.70;99.90;;;;;;8393044;28;19920;-69
2024/04/02 12:03:36;;;;;;;;;;;11.50;99.90;;;;;;8409152;28;19920;-69
2024/04/02 12:07:37;;;;;;;;;;;11.40;99.90;;;;;;8406967;28;20249;-68
2024/04/02 12:11:38;;;;;;;;;;;11.30;99.90;;;;;;8409116;28;20010;-69
2024/04/02 12:15:39;;;;;;;;;;;11.20;99.90;;;;;;8406893;28;19963;-68
2024/04/02 12:19:40;;;;;;;;;;;11.20;99.90;;;;;;8409531;28;19965;-69
2024/04/02 12:23:41;;;;;;;;;;;11.30;99.90;;;;;;8407930;28;19928;-69
2024/04/02 12:27:42;;;;;;;;;;;11.30;99.90;;;;;;8408840;28;20021;-69
2024/04/02 12:31:43;;;;;;;;;;;11.40;99.90;;;;;;8392333;28;19927;-69
2024/04/02 12:35:44;;;;;;;;;;;11.50;99.90;;;;;;8409150;28;20268;-68
2024/04/02 12:39:46;;;;;;;;;;;11.50;99.90;;;;;;8389656;28;19920;-69
2024/04/02 12:43:47;;;;;;;;;;;11.40;99.90;;;;;;8377538;28;20042;-69
2024/04/02 12:47:48;;;;;;;;;;;11.20;99.90;;;;;;8404618;28;19920;-69
2024/04/02 12:51:49;;;;;;;;;;;11.10;99.90;;;;;;8408722;28;19920;-68
2024/04/02 12:55:51;;;;;;;;;;;11.00;99.90;;;;;;8390091;28;20339;-69
2024/04/02 12:59:52;;;;;;;;;;;10.90;99.90;;;;;;8406635;28;20007;-69
2024/04/02 13:03:53;;;;;;;;;;;10.80;99.90;;;;;;8408214;28;20011;-69
2024/04/02 13:07:54;;;;;;;;;;;10.70;99.90;;;;;;8390462;28;20010;-69
2024/04/02 13:11:55;;;;;;;;;;;10.70;99.90;;;;;;8406175;28;20003;-69
2024/04/02 13:15:55;;;;;;;;;;;10.70;99.90;;;;;;8391002;28;19924;-69
2024/04/02 13:19:57;;;;;;;;;;;10.70;99.90;;;;;;8389509;28;20331;-69
2024/04/02 13:23:58;;;;;;;;;;;10.70;99.90;;;;;;8407541;28;20011;-69
2024/04/02 13:27:59;;;;;;;;;;;10.70;99.90;;;;;;8407519;28;20335;-69
2024/04/02 13:31:59;;;;;;;;;;;10.70;99.90;;;;;;8406310;28;19995;-69
2024/04/02 13:36:04;;;;;;;;;;;10.80;99.90;;;;;;8408239;28;20318;-69
2024/04/02 13:40:05;;;;;;;;;;;10.90;99.90;;;;;;8411075;28;20002;-69
2024/04/02 13:44:06;;;;;;;;;;;11.10;99.90;;;;;;8405010;28;20313;-69
2024/04/02 13:48:07;;;;;;;;;;;11.20;99.90;;;;;;8408141;28;19920;-70
2024/04/02 13:52:08;;;;;;;;;;;11.10;99.90;;;;;;8408228;28;19924;-69
2024/04/02 13:56:09;;;;;;;;;;;11.10;99.90;;;;;;8399052;28;19928;-69
2024/04/02 14:00:10;;;;;;;;;;;11.00;99.90;;;;;;8411325;28;20031;-70
2024/04/02 14:04:11;;;;;;;;;;;10.90;99.90;;;;;;8413354;28;19936;-69
2024/04/02 14:08:12;;;;;;;;;;;10.80;99.90;;;;;;8414548;28;19920;-70
2024/04/02 14:12:13;;;;;;;;;;;10.70;99.90;;;;;;8418584;28;19965;-69
2024/04/02 14:16:14;;;;;;;;;;;10.60;99.90;;;;;;8413635;28;20006;-69
2024/04/02 14:20:15;;;;;;;;;;;10.50;99.90;;;;;;8409710;28;20014;-69
2024/04/02 14:24:16;;;;;;;;;;;10.50;99.90;;;;;;8411393;28;19919;-69
2024/04/02 14:28:17;;;;;;;;;;;10.50;99.90;;;;;;8396346;28;19920;-69
2024/04/02 14:32:18;;;;;;;;;;;10.60;99.90;;;;;;8409712;28;20006;-69
2024/04/02 14:36:19;;;;;;;;;;;10.60;99.90;;;;;;8396154;28;19973;-69
2024/04/02 14:40:20;;;;;;;;;;;10.60;99.90;;;;;;8410127;28;20018;-69
2024/04/02 14:44:20;;;;;;;;;;;10.70;99.90;;;;;;8402610;28;19935;-69
2024/04/02 14:48:21;;;;;;;;;;;10.80;99.90;;;;;;8404950;28;20039;-69
2024/04/02 14:52:22;;;;;;;;;;;10.90;99.90;;;;;;8394715;28;20526;-69
2024/04/02 14:56:24;;;;;;;;;;;11.00;99.90;;;;;;8411071;28;20378;-69
2024/04/02 15:00:25;;;;;;;;;;;11.10;99.90;;;;;;8411965;28;20002;-69
2024/04/02 15:04:26;;;;;;;;;;;11.10;99.90;;;;;;8408589;28;20003;-70
2024/04/02 15:08:27;;;;;;;;;;;11.20;99.90;;;;;;8411836;28;19920;-70
2024/04/02 15:12:28;;;;;;;;;;;11.30;99.90;;;;;;8410097;28;20003;-69
2024/04/02 15:16:28;;;;;;;;;;;11.40;99.90;;;;;;8410486;28;19924;-69
2024/04/02 15:20:32;;;;;;;;;;;11.50;99.90;;;;;;8411054;28;19945;-69
2024/04/02 15:24:32;;;;;;;;;;;11.50;99.90;;;;;;8389705;28;19924;-70
2024/04/02 15:28:33;;;;;;;;;;;11.50;99.90;;;;;;8405565;28;19982;-70
2024/04/02 15:32:35;;;;;;;;;;;11.70;99.90;;;;;;8407266;28;19981;-69
2024/04/02 15:36:36;;;;;;;;;;;12.00;99.90;;;;;;8406483;28;19999;-69
2024/04/02 15:40:37;;;;;;;;;;;12.40;99.90;;;;;;8392531;28;19928;-69
2024/04/02 15:44:38;;;;;;;;;;;13.10;99.90;;;;;;8384889;28;19999;-69
2024/04/02 15:48:39;;;;;;;;;;;13.40;99.90;;;;;;8385107;28;20181;-70
2024/04/02 15:52:39;;;;;;;;;;;13.50;99.90;;;;;;8391676;28;20355;-69
2024/04/02 15:56:40;;;;;;;;;;;13.30;99.90;;;;;;8403235;28;20243;-70
2024/04/02 16:00:41;;;;;;;;;;;13.00;99.90;;;;;;8406427;28;20471;-69
2024/04/02 16:04:46;;;;;;;;;;;12.70;99.90;;;;;;8408279;28;19981;-69
2024/04/02 16:08:47;;;;;;;;;;;12.40;99.90;;;;;;8408689;28;20031;-69
2024/04/02 16:12:48;;;;;;;;;;;12.20;99.90;;;;;;8409888;28;19966;-69
2024/04/02 16:16:49;;;;;;;;;;;12.00;99.90;;;;;;8408635;28;20019;-69
2024/04/02 16:20:50;;;;;;;;;;;11.90;99.90;;;;;;8387923;28;19923;-69
2024/04/02 16:24:51;;;;;;;;;;;12.00;99.90;;;;;;8381344;28;19942;-69
2024/04/02 16:28:51;;;;;;;;;;;13.00;99.90;;;;;;8376430;28;19919;-69
2024/04/02 16:32:52;;;;;;;;;;;13.90;99.90;;;;;;8382954;28;19929;-69
2024/04/02 16:36:53;;;;;;;;;;;14.50;99.90;;;;;;8414296;28;20326;-69
2024/04/02 16:40:54;;;;;;;;;;;14.70;99.90;;;;;;8393202;28;19959;-69
2024/04/02 16:44:55;;;;;;;;;;;14.30;99.90;;;;;;8369339;28;19932;-69
2024/04/02 16:48:59;;;;;;;;;;;13.80;99.90;;;;;;8368108;28;19952;-69
2024/04/02 16:53:02;;;;;;;;;;;13.40;99.90;;;;;;8381973;28;20372;-69
2024/04/02 16:57:03;;;;;;;;;;;13.10;99.90;;;;;;8348597;28;20265;-69
2024/04/02 17:01:04;;;;;;;;;;;13.10;99.90;;;;;;8376126;28;19964;-69
2024/04/02 17:05:05;;;;;;;;;;;13.00;99.90;;;;;;8356928;28;19928;-69
2024/04/02 17:09:08;;;;;;;;;;;12.80;99.90;;;;;;8370054;28;20019;-69
2024/04/02 17:13:09;;;;;;;;;;;12.60;99.90;;;;;;8363880;28;19921;-69
2024/04/02 17:17:10;;;;;;;;;;;12.40;99.90;;;;;;8364352;28;19927;-69
2024/04/02 17:21:11;;;;;;;;;;;12.30;99.90;;;;;;8367250;28;19946;-69
2024/04/02 17:25:11;;;;;;;;;;;12.20;99.90;;;;;;8351944;28;19924;-69
2024/04/02 17:29:12;;;;;;;;;;;12.30;99.90;;;;;;8372079;28;19920;-69
2024/04/02 17:33:13;;;;;;;;;;;12.30;99.90;;;;;;8386216;28;20073;-69
2024/04/02 17:37:14;;;;;;;;;;;12.20;99.90;;;;;;8368609;28;19921;-69
2024/04/02 17:41:15;;;;;;;;;;;12.20;99.90;;;;;;8365530;28;19959;-69
2024/04/02 17:45:16;;;;;;;;;;;12.10;99.90;;;;;;8366096;28;20290;-69
2024/04/02 17:49:17;;;;;;;;;;;12.00;99.90;;;;;;8369621;28;19920;-69
2024/04/02 17:53:18;;;;;;;;;;;12.00;99.90;;;;;;8368032;28;19980;-69
2024/04/02 17:57:20;;;;;;;;;;;11.90;99.90;;;;;;8363709;28;20268;-69
2024/04/02 18:01:21;;;;;;;;;;;11.90;99.90;;;;;;8384329;28;19924;-69
2024/04/02 18:05:21;;;;;;;;;;;11.80;99.90;;;;;;8365410;28;19953;-69
2024/04/02 18:09:22;;;;;;;;;;;11.70;99.90;;;;;;8364159;28;20387;-69
2024/04/02 18:13:23;;;;;;;;;;;11.60;99.90;;;;;;8368136;28;20330;-69
2024/04/02 18:17:24;;;;;;;;;;;11.50;99.90;;;;;;8365042;28;19924;-69
2024/04/02 18:21:25;;;;;;;;;;;11.50;99.90;;;;;;8370349;28;19924;-69
2024/04/02 18:25:25;;;;;;;;;;;11.40;99.90;;;;;;8381134;28;20394;-68
2024/04/02 18:29:26;;;;;;;;;;;11.30;99.90;;;;;;8381154;28;19924;-69
2024/04/02 18:33:27;;;;;;;;;;;11.30;99.90;;;;;;8364364;28;19924;-68
2024/04/02 18:37:28;;;;;;;;;;;11.30;99.90;;;;;;8368059;28;19931;-69
2024/04/02 18:41:28;;;;;;;;;;;11.30;99.90;;;;;;8370032;28;20397;-69
2024/04/02 18:45:30;;;;;;;;;;;11.30;99.90;;;;;;8371748;28;19920;-68
2024/04/02 18:49:31;;;;;;;;;;;11.30;99.90;;;;;;8376966;28;19920;-69
2024/04/02 18:53:32;;;;;;;;;;;11.30;99.90;;;;;;8370698;28;19966;-69
2024/04/02 18:57:33;;;;;;;;;;;11.30;99.90;;;;;;8370871;28;20013;-69
2024/04/02 19:01:34;;;;;;;;;;;11.30;99.90;;;;;;8370911;28;19920;-69
2024/04/02 19:05:35;;;;;;;;;;;11.20;99.90;;;;;;8371181;28;19977;-69
2024/04/02 19:09:38;;;;;;;;;;;11.10;99.90;;;;;;8372307;28;19920;-69
2024/04/02 19:13:39;;;;;;;;;;;11.10;99.90;;;;;;8370460;28;20038;-69
2024/04/02 19:17:40;;;;;;;;;;;11.00;99.90;;;;;;8395632;28;19939;-69
2024/04/02 19:21:40;;;;;;;;;;;10.90;99.90;;;;;;8389605;28;19924;-69
2024/04/02 19:25:41;;;;;;;;;;;10.90;99.90;;;;;;8386266;28;20013;-68
2024/04/02 19:29:42;;;;;;;;;;;10.90;99.90;;;;;;8373490;28;19926;-68
2024/04/02 19:33:42;;;;;;;;;;;10.90;99.90;;;;;;8374097;28;19920;-69
2024/04/02 19:37:45;;;;;;;;;;;10.90;99.90;;;;;;8402762;28;19924;-69
2024/04/02 19:41:46;;;;;;;;;;;10.90;99.90;;;;;;8368465;28;19927;-69
2024/04/02 19:45:52;;;;;;;;;;;10.90;99.90;;;;;;8371186;28;20034;-68
2024/04/02 19:49:53;;;;;;;;;;;10.80;99.90;;;;;;8355639;28;19927;-69
2024/04/02 19:53:54;;;;;;;;;;;10.70;99.90;;;;;;8369467;28;19920;-69
2024/04/02 19:57:55;;;;;;;;;;;10.70;99.90;;;;;;8354868;28;19935;-69
2024/04/02 20:01:55;;;;;;;;;;;10.60;99.90;;;;;;8367572;28;19928;-69
2024/04/02 20:05:56;;;;;;;;;;;10.60;99.90;;;;;;8371020;28;20367;-68
2024/04/02 20:09:57;;;;;;;;;;;10.60;99.90;;;;;;8375262;28;19981;-68
2024/04/02 20:14:00;;;;;;;;;;;10.50;99.90;;;;;;8383687;28;19966;-68
2024/04/02 20:18:01;;;;;;;;;;;10.50;99.90;;;;;;8386605;28;19982;-68
2024/04/02 20:22:01;;;;;;;;;;;10.50;99.90;;;;;;8382953;28;19929;-68
2024/04/02 20:26:03;;;;;;;;;;;10.50;99.90;;;;;;8367442;28;19924;-68
2024/04/02 20:30:08;;;;;;;;;;;10.50;99.90;;;;;;8352414;28;19927;-68
2024/04/02 20:34:08;;;;;;;;;;;10.50;99.90;;;;;;8368887;28;19924;-68
2024/04/02 20:38:13;;;;;;;;;;;10.50;99.90;;;;;;8367098;28;20011;-68
2024/04/02 20:42:14;;;;;;;;;;;10.40;99.90;;;;;;8366571;28;19926;-68
2024/04/02 20:46:14;;;;;;;;;;;10.40;99.90;;;;;;8369825;28;19927;-68
2024/04/02 20:50:15;;;;;;;;;;;10.30;99.90;;;;;;8372719;28;19920;-69
2024/04/02 20:54:16;;;;;;;;;;;10.30;99.90;;;;;;8377988;28;19974;-69
2024/04/02 20:58:17;;;;;;;;;;;10.30;99.90;;;;;;8370855;28;19950;-69
2024/04/02 21:02:18;;;;;;;;;;;10.20;99.90;;;;;;8385384;28;19920;-69
2024/04/02 21:06:19;;;;;;;;;;;10.20;99.90;;;;;;8404021;28;19920;-69
2024/04/02 21:10:20;;;;;;;;;;;10.20;99.90;;;;;;8391805;28;20279;-69
2024/04/02 21:14:21;;;;;;;;;;;10.20;99.90;;;;;;8405787;28;20031;-69
2024/04/02 21:18:23;;;;;;;;;;;10.20;99.90;;;;;;8403235;28;19995;-70
2024/04/02 21:22:24;;;;;;;;;;;10.20;99.90;;;;;;8403749;28;19920;-70
2024/04/02 21:26:25;;;;;;;;;;;10.20;99.90;;;;;;8391906;28;20442;-70
2024/04/02 21:30:25;;;;;;;;;;;10.20;99.90;;;;;;8407731;28;20310;-69
2024/04/02 21:34:26;;;;;;;;;;;10.20;99.90;;;;;;8404827;28;19924;-69
2024/04/02 21:38:27;;;;;;;;;;;10.20;99.90;;;;;;8406935;28;19920;-69
2024/04/02 21:42:28;;;;;;;;;;;10.20;99.90;;;;;;8387103;28;20353;-69
2024/04/02 21:46:29;;;;;;;;;;;10.30;99.90;;;;;;8406672;28;20367;-69
2024/04/02 21:50:31;;;;;;;;;;;10.30;99.90;;;;;;8407619;28;19927;-69
2024/04/02 21:54:31;;;;;;;;;;;10.30;99.90;;;;;;8411833;28;20008;-69
2024/04/02 21:58:33;;;;;;;;;;;10.40;99.90;;;;;;8402882;28;20006;-69
2024/04/02 22:02:34;;;;;;;;;;;10.40;99.90;;;;;;8397398;28;19928;-69
2024/04/02 22:06:34;;;;;;;;;;;10.40;99.90;;;;;;8388800;28;19962;-69
2024/04/02 22:10:35;;;;;;;;;;;10.40;99.90;;;;;;8369095;28;19928;-69
2024/04/02 22:14:36;;;;;;;;;;;10.40;99.90;;;;;;8392322;28;20288;-69
2024/04/02 22:18:37;;;;;;;;;;;10.40;99.90;;;;;;8395795;28;19924;-69
2024/04/02 22:22:37;;;;;;;;;;;10.40;99.90;;;;;;8393982;28;19920;-69
2024/04/02 22:26:38;;;;;;;;;;;10.40;99.90;;;;;;8391054;28;19920;-69
2024/04/02 22:30:39;;;;;;;;;;;10.40;99.90;;;;;;8393008;28;19971;-68
2024/04/02 22:34:40;;;;;;;;;;;10.40;99.90;;;;;;8384388;28;19966;-69
2024/04/02 22:38:41;;;;;;;;;;;10.40;99.90;;;;;;8395907;28;19947;-69
2024/04/02 22:42:42;;;;;;;;;;;10.50;99.90;;;;;;8364539;28;20387;-69
2024/04/02 22:46:42;;;;;;;;;;;10.50;99.90;;;;;;8395703;28;20277;-69
2024/04/02 22:50:44;;;;;;;;;;;10.40;99.90;;;;;;8394250;28;19921;-69
2024/04/02 22:54:44;;;;;;;;;;;10.40;99.90;;;;;;8387428;28;20003;-69
2024/04/02 22:58:45;;;;;;;;;;;10.50;99.90;;;;;;8379318;28;19931;-69
2024/04/02 23:02:46;;;;;;;;;;;10.40;99.90;;;;;;8363433;28;19920;-69
2024/04/02 23:06:47;;;;;;;;;;;10.50;99.90;;;;;;8388285;28;19924;-69
2024/04/02 23:10:48;;;;;;;;;;;10.40;99.90;;;;;;8391030;28;19993;-69
2024/04/02 23:14:49;;;;;;;;;;;10.40;99.90;;;;;;8390690;28;20228;-69
2024/04/02 23:18:49;;;;;;;;;;;10.40;99.90;;;;;;8393902;28;19920;-69
2024/04/02 23:22:50;;;;;;;;;;;10.30;99.90;;;;;;8388192;28;19990;-69
2024/04/02 23:26:51;;;;;;;;;;;10.30;99.90;;;;;;8372032;28;19927;-69
2024/04/02 23:30:52;;;;;;;;;;;10.20;99.90;;;;;;8389643;28;19934;-69
2024/04/02 23:34:53;;;;;;;;;;;10.20;99.90;;;;;;8388804;28;20298;-69
2024/04/02 23:38:53;;;;;;;;;;;10.10;99.90;;;;;;8374621;28;20431;-69
2024/04/02 23:42:54;;;;;;;;;;;10.10;99.90;;;;;;8362909;28;20285;-69
2024/04/02 23:47:01;;;;;;;;;;;10.10;99.90;;;;;;8392663;28;19956;-69
2024/04/02 23:51:02;;;;;;;;;;;10.00;99.90;;;;;;8391754;28;20023;-69
2024/04/02 23:55:03;;;;;;;;;;;10.00;99.90;;;;;;8387044;28;19920;-69
2024/04/02 23:59:04;;;;;;;;;;;10.00;99.90;;;;;;8391497;28;19927;-69
